Friday, November 24, 2017, 12:37 AM EST
Back to Local

KLFI, Langley Air Force Base

Location: Hampton, VA, United States Lat: 37.083
Local Time: 12:37 AM EST ( 5:37 GMT) Lon: -76.35
Time Zone: US/Eastern Elev: 9 ft

Show me the last for .
Show Coded

Time T Td Feel RH Dir Speed Gust Alt SLP Vis Weather Sky Remarks
2017-11-23 23:56 31 28 - 90 - Calm - 30.08 30.10 10 CLR 24-hr Min Temp (12am): 30.7°F
24-hr Max Temp (12am): 45.5°F
2017-11-23 22:56 31 28 - 88 - Calm - 30.09 30.11 10 CLR None
2017-11-23 21:56 33 29 - 87 - Calm - 30.08 30.10 10 CLR None
2017-11-23 20:56 34 30 - 85 - Calm - 30.09 30.11 10 CLR None
2017-11-23 19:56 34 30 - 87 - Calm - 30.09 30.11 10 CLR None
2017-11-23 18:56 36 31 - 84 - Calm - 30.09 30.11 10 CLR 6-hr Min Temp (7pm): 34.9°F
6-hr Max Temp (7pm): 45.5°F
2017-11-23 17:56 38 32 - 77 - Calm - 30.07 30.09 10 CLR None
2017-11-23 16:56 41 29 - 61 - Calm - 30.08 30.10 10 CLR None
2017-11-23 15:56 43 30 40 59 60° 5 - 30.08 30.10 10 CLR None
2017-11-23 14:56 45 31 43 56 30° 5 - 30.07 30.09 10 CLR None
2017-11-23 13:56 44 29 43 55 30° 3 - 30.10 30.12 10 SCT220 None
2017-11-23 12:56 45 30 42 54 70° 7 - 30.12 30.14 9 SCT200 6-hr Min Temp (1pm): 35.4°F
6-hr Max Temp (1pm): 45.3°F
2017-11-23 11:56 44 29 42 56 40° 3 - 30.16 30.18 10 FEW210 None
2017-11-23 10:56 43 29 38 58 350° 8 - 30.16 30.18 9 FEW220 None
2017-11-23 09:56 43 30 37 61 20° 10 - 30.19 30.21 9 SCT220 None
2017-11-23 08:56 40 28 32 63 340° 14 - 30.18 30.20 10 CLR None
2017-11-23 07:56 38 29 30 71 340° 12 - 30.18 30.20 10 CLR None
2017-11-23 06:56 36 28 30 73 330° 7 - 30.16 30.18 10 CLR 24-hr Precip Total (7am): 0.10"
6-hr Min Temp (7am): 35.1°F
6-hr Max Temp (7am): 40.3°F
2017-11-23 05:56 36 28 29 73 330° 9 - 30.15 30.17 10 CLR None
2017-11-23 04:56 36 28 31 73 320° 6 - 30.14 30.16 10 CLR None
2017-11-23 03:56 37 27 30 69 330° 8 - 30.15 30.17 10 CLR None
2017-11-23 02:56 38 28 31 67 330° 9 - 30.15 30.17 10 CLR None
2017-11-23 01:56 39 28 34 64 310° 7 - 30.16 30.18 10 CLR None
2017-11-23 00:56 40 28 33 61 340° 14 - 30.16 30.18 10 CLR 6-hr Min Temp (1am): 40.3°F
6-hr Max Temp (1am): 49.3°F

Support USWX by starting your Amazon purchase here.